Time;durP1;ratioP1;P1;durP2;ratioP2;P2;SDS_P1;SDS_P2;PMS_P1;PMS_P2;Temp;Humidity;BMP_temperature;BMP_pressure;BME280_temperature;BME280_humidity;BME280_pressure;Samples;Min_cycle;Max_cycle;Signal;HPM_P1;HPM_P2
2023/08/24 00:01:08;;;;;;;11.75;4.75;;;;;;;-146.27;81.13;81564.69;5026922;28;20057;-73
2023/08/24 00:03:34;;;;;;;9.50;4.70;;;;;;;-146.27;81.28;81538.56;5020376;28;20469;-71
2023/08/24 00:05:59;;;;;;;8.02;4.45;;;;;;;-146.27;80.62;81506.44;5025696;28;20087;-72
2023/08/24 00:08:25;;;;;;;10.10;4.70;;;;;;;-146.27;80.77;81560.66;5018531;28;20050;-71
2023/08/24 00:10:50;;;;;;;9.00;5.10;;;;;;;-146.27;81.17;81526.53;5025057;28;20076;-71
2023/08/24 00:13:15;;;;;;;5.45;4.35;;;;;;;-146.27;80.76;81518.50;5029240;28;20060;-71
2023/08/24 00:15:41;;;;;;;9.48;4.78;;;;;;;-146.27;81.13;81544.59;5027595;28;20101;-71
2023/08/24 00:18:07;;;;;;;9.13;4.53;;;;;;;-146.27;81.66;81530.53;5027139;28;20025;-70
2023/08/24 00:20:33;;;;;;;6.82;4.35;;;;;;;-146.27;81.70;81528.53;5025486;28;20512;-71
2023/08/24 00:22:59;;;;;;;7.10;4.78;;;;;;;-146.27;81.49;81482.34;5024498;28;20044;-71
2023/08/24 00:25:25;;;;;;;5.95;4.07;;;;;;;-146.27;81.70;81516.47;5028977;28;20033;-70
2023/08/24 00:27:53;;;;;;;9.70;4.22;;;;;;;-146.27;81.68;81488.38;5024893;28;20037;-72
2023/08/24 00:30:19;;;;;;;8.60;5.00;;;;;;;-146.27;81.86;81512.47;5026941;28;20041;-70
2023/08/24 00:32:44;;;;;;;10.35;4.43;;;;;;;-146.27;81.84;81510.44;5030320;28;20029;-71
2023/08/24 00:35:10;;;;;;;6.20;4.38;;;;;;;-146.27;81.78;81474.31;5020701;28;20021;-70
2023/08/24 00:37:36;;;;;;;5.95;3.90;;;;;;;-146.27;82.28;81496.41;5027163;28;20053;-70
2023/08/24 00:40:04;;;;;;;8.25;4.45;;;;;;;-146.27;82.23;81528.53;5023760;28;20033;-71
2023/08/24 00:42:31;;;;;;;9.68;4.60;;;;;;;-146.27;82.45;81532.53;5043681;28;20040;-71
2023/08/24 00:44:57;;;;;;;7.30;4.10;;;;;;;-146.27;82.94;81558.66;5026974;28;20022;-71
2023/08/24 00:47:22;;;;;;;10.05;4.57;;;;;;;-146.27;82.50;81530.53;5028028;28;20036;-72
2023/08/24 00:49:48;;;;;;;8.45;4.75;;;;;;;-146.27;82.38;81494.38;5025786;28;20086;-69
2023/08/24 00:52:14;;;;;;;8.40;4.28;;;;;;;-146.27;82.52;81508.44;5026401;28;20389;-72
2023/08/24 00:54:40;;;;;;;8.45;5.50;;;;;;;-146.27;82.30;81544.59;5022228;28;20033;-70
2023/08/24 00:57:06;;;;;;;6.70;4.30;;;;;;;-146.27;82.65;81492.38;5023252;28;20029;-70
2023/08/24 00:59:33;;;;;;;7.75;4.85;;;;;;;-146.27;82.44;81520.50;5024136;28;20028;-70
2023/08/24 01:01:59;;;;;;;8.55;4.60;;;;;;;-146.27;82.53;81456.22;5023921;28;20039;-72
2023/08/24 01:04:24;;;;;;;9.82;4.78;;;;;;;-146.27;82.36;81494.38;5024666;28;20104;-69
2023/08/24 01:06:51;;;;;;;6.90;4.10;;;;;;;-146.27;82.25;81500.41;5024774;28;20056;-71
2023/08/24 01:09:16;;;;;;;9.40;4.55;;;;;;;-146.27;82.66;81488.38;5023313;28;20175;-73
2023/08/24 01:12:00;;;;;;;10.30;4.95;;;;;;;-146.27;82.36;81468.28;5024116;28;20545;-73
2023/08/24 01:14:53;;;;;;;5.55;4.03;;;;;;;-146.27;83.17;81468.28;5025324;28;20552;-72
2023/08/24 01:17:22;;;;;;;10.90;4.60;;;;;;;-146.27;82.55;81428.09;5018102;28;20349;-73
2023/08/24 01:19:49;;;;;;;11.55;4.70;;;;;;;-146.27;83.39;81452.22;5023687;28;20079;-73
2023/08/24 01:22:56;;;;;;;10.98;4.70;;;;;;;-146.27;84.96;81452.22;5027894;28;20107;-73
2023/08/24 01:25:37;;;;;;;9.52;5.47;;;;;;;-146.27;85.41;81480.31;5025665;28;20026;-73
2023/08/24 01:28:05;;;;;;;11.57;5.45;;;;;;;-146.27;85.58;81488.38;5017012;28;20029;-72
2023/08/24 01:30:30;;;;;;;9.02;5.55;;;;;;;-146.27;86.83;81488.38;5020001;28;20071;-73
2023/08/24 01:32:56;;;;;;;18.52;5.78;;;;;;;-146.27;87.59;81470.28;5027084;28;20041;-73
2023/08/24 01:35:21;;;;;;;7.35;5.57;;;;;;;-146.27;88.26;81558.66;5026123;28;20033;-74
2023/08/24 01:37:47;;;;;;;7.75;5.35;;;;;;;-146.27;88.23;81512.47;5021494;28;20037;-74
2023/08/24 01:40:25;;;;;;;10.05;5.78;;;;;;;-146.27;88.30;81524.50;5020862;28;20140;-74
2023/08/24 01:43:03;;;;;;;9.57;5.32;;;;;;;-146.27;88.75;81562.66;5021495;28;20696;-74
2023/08/24 01:45:32;;;;;;;12.60;5.28;;;;;;;-146.27;88.89;81524.50;5022088;28;20029;-74
2023/08/24 01:48:02;;;;;;;10.00;5.95;;;;;;;-146.27;89.78;81540.56;5019319;28;20108;-73
2023/08/24 01:50:29;;;;;;;10.80;5.72;;;;;;;-146.27;89.79;81512.47;5018522;28;20033;-72
2023/08/24 01:52:54;;;;;;;13.73;5.60;;;;;;;-146.27;90.34;81534.56;5020156;28;20036;-72
2023/08/24 01:55:20;;;;;;;10.35;5.25;;;;;;;-146.27;89.85;81528.53;5020450;28;20488;-73
2023/08/24 01:57:46;;;;;;;10.73;5.57;;;;;;;-146.27;88.45;81508.44;5020574;28;20152;-72
2023/08/24 02:00:12;;;;;;;10.20;4.75;;;;;;;-146.27;89.16;81512.47;5022543;28;20025;-73
2023/08/24 02:02:38;;;;;;;12.40;5.60;;;;;;;-146.27;88.78;81536.56;5024773;28;20043;-73
2023/08/24 02:05:03;;;;;;;8.38;5.00;;;;;;;-146.27;88.02;81536.56;5025304;28;20038;-72
2023/08/24 02:07:29;;;;;;;9.27;4.90;;;;;;;-146.27;87.54;81520.50;5023562;28;20022;-72
2023/08/24 02:09:55;;;;;;;6.53;4.80;;;;;;;-146.27;87.83;81520.50;5028866;28;20029;-72
2023/08/24 02:12:20;;;;;;;11.77;5.43;;;;;;;-146.27;87.01;81576.72;5024998;28;20084;-73
2023/08/24 02:14:46;;;;;;;9.10;5.47;;;;;;;-146.27;88.09;81532.53;5028319;28;20385;-71
2023/08/24 02:17:11;;;;;;;8.75;5.50;;;;;;;-146.27;88.58;81550.63;5028406;28;20108;-69
2023/08/24 02:19:36;;;;;;;9.75;5.82;;;;;;;-146.27;87.93;81544.59;5029198;28;20028;-69
2023/08/24 02:22:02;;;;;;;8.90;5.60;;;;;;;-146.27;88.29;81596.81;5029845;28;20076;-70
2023/08/24 02:24:27;;;;;;;9.23;5.25;;;;;;;-146.27;88.13;81560.66;5024383;28;20033;-71
2023/08/24 02:26:53;;;;;;;8.40;5.78;;;;;;;-146.27;87.77;81558.66;5030662;28;20076;-70
2023/08/24 02:29:18;;;;;;;11.60;5.68;;;;;;;-146.27;88.56;81598.81;5029904;28;20477;-70
2023/08/24 02:31:43;;;;;;;13.48;6.43;;;;;;;-146.27;88.02;81572.72;5032639;28;20025;-69
2023/08/24 02:34:09;;;;;;;12.45;5.90;;;;;;;-146.27;88.17;81592.78;5031259;28;20018;-69
2023/08/24 02:36:34;;;;;;;9.25;5.40;;;;;;;-146.27;88.24;81550.63;5030657;28;20026;-70
2023/08/24 02:39:00;;;;;;;7.40;5.63;;;;;;;-146.27;88.27;81608.88;5030235;28;20117;-69
2023/08/24 02:41:26;;;;;;;11.05;5.47;;;;;;;-146.27;88.64;81592.78;5031246;28;20025;-70
2023/08/24 02:43:52;;;;;;;9.43;5.63;;;;;;;-146.27;88.92;81604.84;5031116;28;20029;-71
2023/08/24 02:46:18;;;;;;;8.02;5.35;;;;;;;-146.27;88.67;81608.88;5025900;28;20112;-70
2023/08/24 02:48:44;;;;;;;10.23;5.30;;;;;;;-146.27;89.19;81560.66;5029701;28;20388;-71
2023/08/24 02:51:10;;;;;;;7.90;5.68;;;;;;;-146.27;89.32;81578.75;5031521;28;20100;-70
2023/08/24 02:53:36;;;;;;;10.70;5.97;;;;;;;-146.27;88.99;81568.69;5029373;28;20405;-70
2023/08/24 02:56:02;;;;;;;7.30;5.60;;;;;;;-146.27;89.20;81590.78;5029799;28;20034;-70
2023/08/24 02:58:28;;;;;;;10.40;5.90;;;;;;;-146.27;89.39;81614.88;5028414;28;20114;-70
2023/08/24 03:00:53;;;;;;;12.32;5.53;;;;;;;-146.27;90.44;81614.88;5027193;28;20052;-70
2023/08/24 03:03:19;;;;;;;10.70;6.43;;;;;;;-146.27;90.36;81604.84;5020886;28;20117;-70
2023/08/24 03:05:59;;;;;;;12.57;6.35;;;;;;;-146.27;90.62;81645.00;5027146;28;20473;-69
2023/08/24 03:08:24;;;;;;;12.93;6.05;;;;;;;-146.27;89.93;81681.16;5029357;28;20061;-72
2023/08/24 03:10:50;;;;;;;11.77;6.65;;;;;;;-146.27;90.18;81665.09;5027625;28;20017;-69
2023/08/24 03:13:15;;;;;;;11.90;6.70;;;;;;;-146.27;91.52;81697.22;5032758;28;20025;-71
2023/08/24 03:15:41;;;;;;;10.05;6.13;;;;;;;-146.27;90.97;81725.34;5027585;28;20036;-70
2023/08/24 03:18:06;;;;;;;8.63;6.18;;;;;;;-146.27;90.96;81717.31;5028071;28;20104;-71
2023/08/24 03:20:32;;;;;;;9.30;6.20;;;;;;;-146.27;91.27;81701.25;5028841;28;20218;-70
2023/08/24 03:22:57;;;;;;;10.50;6.25;;;;;;;-146.27;91.22;81733.38;5026938;28;20029;-70
2023/08/24 03:25:23;;;;;;;11.02;6.18;;;;;;;-146.27;91.31;81741.41;5026880;28;20037;-70
2023/08/24 03:27:48;;;;;;;14.75;6.18;;;;;;;-146.27;91.83;81735.41;5030245;28;20017;-69
2023/08/24 03:30:14;;;;;;;8.10;6.28;;;;;;;-146.27;92.06;81761.50;5028430;28;20106;-70
2023/08/24 03:32:40;;;;;;;13.82;7.38;;;;;;;-146.27;92.07;81761.50;5031273;28;20026;-70
2023/08/24 03:35:06;;;;;;;10.25;6.90;;;;;;;-146.27;91.78;81769.53;5026322;28;20108;-71
2023/08/24 03:37:32;;;;;;;9.38;6.00;;;;;;;-146.27;91.76;81769.53;5021968;28;20025;-70
2023/08/24 03:39:57;;;;;;;13.45;6.45;;;;;;;-146.27;92.27;81759.50;5026307;28;20429;-69
2023/08/24 03:42:23;;;;;;;9.20;6.38;;;;;;;-146.27;91.89;81733.38;5024203;28;20033;-71
2023/08/24 03:44:48;;;;;;;11.05;5.80;;;;;;;-146.27;90.91;81771.53;5024019;28;20028;-70
2023/08/24 03:47:14;;;;;;;9.25;6.82;;;;;;;-146.27;91.04;81807.69;5022636;28;20032;-72
2023/08/24 03:49:42;;;;;;;8.77;6.78;;;;;;;-146.27;91.48;81797.66;5025970;28;20030;-69
2023/08/24 03:52:08;;;;;;;12.25;7.47;;;;;;;-146.27;91.58;81809.72;5028978;28;20056;-70
2023/08/24 03:54:33;;;;;;;13.38;6.80;;;;;;;-146.27;91.52;81833.81;5018055;28;20116;-70
2023/08/24 03:56:58;;;;;;;10.68;6.53;;;;;;;-146.27;91.79;81805.69;5021462;28;20112;-70
2023/08/24 03:59:24;;;;;;;10.90;7.30;;;;;;;-146.27;92.29;81845.88;5022345;28;20100;-70
2023/08/24 04:01:49;;;;;;;10.02;7.05;;;;;;;-146.27;91.71;81882.00;5024565;28;20412;-71
2023/08/24 04:04:14;;;;;;;14.18;6.93;;;;;;;-146.27;91.99;81813.72;5026815;28;20025;-71
2023/08/24 04:06:40;;;;;;;13.93;7.00;;;;;;;-146.27;92.24;81815.72;5024065;28;20072;-70
2023/08/24 04:09:06;;;;;;;11.20;6.78;;;;;;;-146.27;92.20;81886.03;5025105;28;20057;-70
2023/08/24 04:11:31;;;;;;;10.27;7.13;;;;;;;-146.27;92.22;81849.88;5027633;28;20033;-70
2023/08/24 04:13:57;;;;;;;11.90;7.53;;;;;;;-146.27;92.55;81865.94;5027610;28;20669;-71
2023/08/24 04:16:22;;;;;;;13.85;7.68;;;;;;;-146.27;93.64;81821.75;5026362;28;20108;-70
2023/08/24 04:18:47;;;;;;;16.00;7.38;;;;;;;-146.27;93.09;81813.72;5020603;28;20030;-71
2023/08/24 04:21:13;;;;;;;9.70;7.75;;;;;;;-146.27;92.67;81791.63;5026413;28;20025;-70
2023/08/24 04:23:39;;;;;;;10.30;7.07;;;;;;;-146.27;93.25;81831.81;5028089;28;20482;-70
2023/08/24 04:26:05;;;;;;;11.80;7.90;;;;;;;-146.27;93.09;81829.78;5022138;28;20029;-71
2023/08/24 04:28:30;;;;;;;24.65;8.85;;;;;;;-146.27;92.32;81829.78;5026365;28;20029;-70
2023/08/24 04:30:57;;;;;;;18.15;7.75;;;;;;;-146.27;92.34;81773.56;5025696;28;20032;-70
2023/08/24 04:33:22;;;;;;;10.80;7.07;;;;;;;-146.27;91.68;81727.38;5027833;28;20030;-70
2023/08/24 04:35:49;;;;;;;12.52;8.05;;;;;;;-146.27;91.91;81789.63;5027529;28;20102;-69
2023/08/24 04:38:16;;;;;;;10.25;7.40;;;;;;;-146.27;91.55;81769.53;5030258;28;20026;-73
2023/08/24 04:40:52;;;;;;;14.98;7.13;;;;;;;-146.27;91.72;81857.91;5027569;28;20068;-73
2023/08/24 04:43:19;;;;;;;16.08;7.70;;;;;;;-146.27;91.28;81769.53;5028811;28;20544;-73
2023/08/24 04:45:49;;;;;;;10.68;7.15;;;;;;;-146.27;91.98;81785.59;5028628;28;20191;-73
2023/08/24 04:48:15;;;;;;;13.15;7.05;;;;;;;-146.27;91.45;81787.63;5029914;28;20241;-73
2023/08/24 04:50:44;;;;;;;14.68;7.60;;;;;;;-146.27;92.01;81773.56;5023341;28;20029;-73
2023/08/24 04:53:10;;;;;;;19.05;8.00;;;;;;;-146.27;92.10;81811.72;5026745;28;20060;-72
2023/08/24 04:55:36;;;;;;;13.45;7.25;;;;;;;-146.27;92.44;81773.56;5023874;28;20454;-73
2023/08/24 04:58:01;;;;;;;14.65;7.93;;;;;;;-146.27;92.54;81797.66;5027676;28;20036;-73
2023/08/24 05:00:26;;;;;;;16.15;7.72;;;;;;;-146.27;92.82;81827.78;5025353;28;20021;-73
2023/08/24 05:02:52;;;;;;;10.48;7.50;;;;;;;-146.27;91.74;81817.75;5017910;28;20880;-72
2023/08/24 05:05:17;;;;;;;11.25;7.95;;;;;;;-146.27;91.96;81827.78;5022219;28;20052;-73
2023/08/24 05:07:42;;;;;;;16.48;8.65;;;;;;;-146.27;92.31;81823.78;5025187;28;20046;-73
2023/08/24 05:10:08;;;;;;;14.70;7.95;;;;;;;-146.27;92.06;81783.59;5018723;28;20029;-73
2023/08/24 05:12:35;;;;;;;14.30;8.55;;;;;;;-146.27;92.31;81853.91;5019218;28;20620;-73
2023/08/24 05:15:02;;;;;;;17.15;7.93;;;;;;;-146.27;92.95;81793.66;5019679;28;20039;-74
2023/08/24 05:17:28;;;;;;;13.52;7.93;;;;;;;-146.27;92.12;81825.78;5022765;28;20066;-73
2023/08/24 05:19:56;;;;;;;12.68;7.72;;;;;;;-146.27;92.42;81805.69;5027957;28;20052;-73
2023/08/24 05:22:21;;;;;;;14.32;8.27;;;;;;;-146.27;92.44;81817.75;5028587;28;20073;-72
2023/08/24 05:24:47;;;;;;;14.95;8.20;;;;;;;-146.27;92.79;81847.88;5022305;28;20029;-73
2023/08/24 05:27:12;;;;;;;12.95;7.88;;;;;;;-146.27;93.11;81833.81;5020830;28;20033;-68
2023/08/24 05:29:37;;;;;;;14.73;8.75;;;;;;;-146.27;93.46;81841.84;5024037;28;20030;-68
2023/08/24 05:32:03;;;;;;;15.18;8.68;;;;;;;-146.27;94.56;81789.63;5025378;28;20025;-68
2023/08/24 05:34:28;;;;;;;17.27;8.60;;;;;;;-146.27;93.00;81813.72;5022539;28;20068;-68
2023/08/24 05:36:54;;;;;;;16.80;8.43;;;;;;;-146.27;93.62;81809.72;5021833;28;20068;-68
2023/08/24 05:39:19;;;;;;;18.08;8.63;;;;;;;-146.27;93.53;81793.66;5020806;28;20124;-68
2023/08/24 05:41:45;;;;;;;14.38;8.88;;;;;;;-146.27;93.49;81765.53;5022086;28;20475;-68
2023/08/24 05:44:10;;;;;;;15.63;9.13;;;;;;;-146.27;93.22;81789.63;5026624;28;20030;-68
2023/08/24 05:46:35;;;;;;;14.65;8.65;;;;;;;-146.27;93.52;81801.69;5025095;28;20021;-71
2023/08/24 05:49:01;;;;;;;13.05;9.15;;;;;;;-146.27;93.73;81713.31;5027582;28;20434;-72
2023/08/24 05:51:26;;;;;;;13.20;9.00;;;;;;;-146.27;93.15;81725.34;5021992;28;20021;-72
2023/08/24 05:53:55;;;;;;;16.52;8.85;;;;;;;-146.27;93.32;81733.38;5026263;28;20172;-70
2023/08/24 05:56:22;;;;;;;14.35;9.32;;;;;;;-146.27;92.59;81789.63;5024386;28;20117;-72
2023/08/24 05:58:48;;;;;;;15.65;9.38;;;;;;;-146.27;93.22;81739.41;5028388;28;20481;-73
2023/08/24 06:01:13;;;;;;;11.80;9.00;;;;;;;-146.27;93.14;81725.34;5025749;28;20082;-73
2023/08/24 06:03:38;;;;;;;17.15;9.55;;;;;;;-146.27;93.32;81697.22;5027241;28;20501;-72
2023/08/24 06:06:04;;;;;;;16.15;10.02;;;;;;;-146.27;92.88;81713.31;5025586;28;20021;-69
2023/08/24 06:08:30;;;;;;;17.30;10.50;;;;;;;-146.27;93.06;81699.25;5021450;28;20033;-71
2023/08/24 06:10:56;;;;;;;19.33;10.00;;;;;;;-146.27;93.21;81641.00;5022899;28;20464;-68
2023/08/24 06:13:21;;;;;;;17.92;10.30;;;;;;;-146.27;93.30;81669.13;5028385;28;20481;-69
2023/08/24 06:15:46;;;;;;;28.35;12.85;;;;;;;-146.27;93.53;81669.13;5025762;28;20036;-69
2023/08/24 06:18:12;;;;;;;20.35;10.10;;;;;;;-146.27;93.73;81560.66;5022260;28;20037;-69
2023/08/24 06:20:37;;;;;;;18.98;10.80;;;;;;;-146.27;93.13;81624.94;5025392;28;20056;-72
2023/08/24 06:23:03;;;;;;;16.25;10.88;;;;;;;-146.27;93.03;81641.00;5025410;28;20049;-71
2023/08/24 06:25:28;;;;;;;14.98;10.63;;;;;;;-146.27;93.49;81592.78;5022244;28;20030;-71
2023/08/24 06:27:53;;;;;;;18.38;11.27;;;;;;;-146.27;92.95;81626.94;5028992;28;20036;-71
2023/08/24 06:30:19;;;;;;;16.60;10.77;;;;;;;-146.27;92.92;81596.81;5027407;28;20025;-72
2023/08/24 06:32:44;;;;;;;21.08;11.13;;;;;;;-146.27;92.90;81564.69;5017281;28;20042;-73
2023/08/24 06:35:14;;;;;;;16.17;10.25;;;;;;;-146.27;92.95;81520.50;5020690;28;20095;-74
2023/08/24 06:37:39;;;;;;;19.45;11.60;;;;;;;-146.27;93.11;81512.47;5016534;28;20117;-71
2023/08/24 06:40:05;;;;;;;18.25;11.88;;;;;;;-146.27;92.88;81494.38;5029066;28;20112;-72
2023/08/24 06:42:31;;;;;;;18.58;11.98;;;;;;;-146.27;93.02;81484.34;5028595;28;20045;-72
2023/08/24 06:44:56;;;;;;;14.75;10.52;;;;;;;-146.27;93.00;81432.13;5021804;28;20540;-71
2023/08/24 06:47:23;;;;;;;18.63;11.07;;;;;;;-146.27;92.52;81470.28;5016526;28;20501;-73
2023/08/24 06:49:49;;;;;;;18.08;11.82;;;;;;;-146.27;92.25;81442.16;5032599;28;20037;-71
2023/08/24 06:52:14;;;;;;;18.33;11.57;;;;;;;-146.27;91.86;81412.03;5030537;28;20017;-72
2023/08/24 06:54:39;;;;;;;20.33;11.07;;;;;;;-146.27;91.91;81375.91;5028230;28;20021;-71
2023/08/24 06:57:05;;;;;;;17.10;11.13;;;;;;;-146.27;91.77;81367.88;5032862;28;20025;-73
2023/08/24 06:59:30;;;;;;;18.13;12.27;;;;;;;-146.27;92.12;81371.88;5031819;28;20033;-71
2023/08/24 07:01:55;;;;;;;20.42;11.73;;;;;;;-146.27;91.74;81359.81;5030542;28;20032;-71
2023/08/24 07:04:21;;;;;;;19.25;12.10;;;;;;;-146.27;91.45;81315.66;5013189;28;20033;-72
2023/08/24 07:06:47;;;;;;;19.65;11.98;;;;;;;-146.27;91.53;81299.59;5013297;28;20129;-72
2023/08/24 07:09:12;;;;;;;20.27;12.23;;;;;;;-146.27;91.36;81301.59;5030200;28;20089;-72
2023/08/24 07:11:38;;;;;;;27.35;13.27;;;;;;;-146.27;91.45;81281.50;5030671;28;20029;-72
2023/08/24 07:14:04;;;;;;;19.30;12.23;;;;;;;-146.27;90.67;81279.50;5017080;28;20031;-71
2023/08/24 07:16:29;;;;;;;23.33;12.48;;;;;;;-146.27;90.42;81239.34;5032639;28;20039;-72
2023/08/24 07:18:54;;;;;;;25.80;13.48;;;;;;;-146.27;90.43;81183.09;5032596;28;20056;-71
2023/08/24 07:21:20;;;;;;;18.95;12.07;;;;;;;-146.27;90.45;81142.94;5031223;28;20069;-72
2023/08/24 07:23:45;;;;;;;17.13;13.80;;;;;;;-146.27;90.69;81150.97;5023799;28;20021;-69
2023/08/24 07:26:10;;;;;;;18.92;12.88;;;;;;;-146.27;89.35;81130.88;5011775;28;20048;-72
2023/08/24 07:28:36;;;;;;;18.60;11.95;;;;;;;-146.27;88.91;81032.50;5017645;28;20108;-72
2023/08/24 07:31:11;;;;;;;20.88;12.98;;;;;;;-146.27;88.27;81038.50;5017525;28;20113;-72
2023/08/24 07:33:38;;;;;;;23.00;13.35;;;;;;;-146.27;88.54;80966.22;5031173;28;20049;-72
2023/08/24 07:36:05;;;;;;;18.35;13.25;;;;;;;-146.27;87.22;80926.06;5028001;28;20406;-72
2023/08/24 07:38:31;;;;;;;19.92;12.00;;;;;;;-146.27;86.65;80930.06;5025215;28;20460;-72
2023/08/24 07:40:57;;;;;;;19.20;12.13;;;;;;;-146.27;86.49;80855.78;5030562;28;20025;-72
2023/08/24 07:43:22;;;;;;;18.10;11.82;;;;;;;-146.27;86.37;80839.72;5030453;28;20021;-72
2023/08/24 07:45:48;;;;;;;22.77;11.68;;;;;;;-146.27;86.20;80765.41;5028939;28;20029;-72
2023/08/24 07:48:13;;;;;;;16.27;11.75;;;;;;;-146.27;85.96;80757.38;5012293;28;20565;-72
2023/08/24 07:50:39;;;;;;;22.02;10.90;;;;;;;-146.27;85.89;80763.41;5017096;28;20037;-72
2023/08/24 07:53:04;;;;;;;24.00;11.20;;;;;;;-146.27;85.55;80681.09;5022743;28;20100;-72
2023/08/24 07:55:30;;;;;;;19.40;10.88;;;;;;;-146.27;85.79;80675.06;5030107;28;20025;-72
2023/08/24 07:57:55;;;;;;;17.00;10.85;;;;;;;-146.27;85.20;80646.94;5030886;28;20117;-72
2023/08/24 08:00:21;;;;;;;15.77;10.80;;;;;;;-146.27;83.92;80669.03;5030199;28;20044;-69
2023/08/24 08:02:49;;;;;;;17.48;10.75;;;;;;;-146.27;83.16;80632.91;5030945;28;20029;-69
2023/08/24 08:05:15;;;;;;;15.88;10.73;;;;;;;-146.27;82.79;80568.63;5030475;28;20033;-73
2023/08/24 08:07:40;;;;;;;15.02;9.95;;;;;;;-146.27;82.23;80580.69;5029614;28;20042;-72
2023/08/24 08:10:06;;;;;;;16.55;9.65;;;;;;;-146.27;80.96;80556.59;5031448;28;20292;-72
2023/08/24 08:12:32;;;;;;;13.18;8.48;;;;;;;-146.27;80.94;80580.69;5022077;28;20156;-73
2023/08/24 08:14:57;;;;;;;19.00;10.75;;;;;;;-146.27;79.30;80564.63;5027627;28;20108;-72
2023/08/24 08:17:23;;;;;;;21.35;10.27;;;;;;;-146.27;79.85;80566.63;5028972;28;20415;-72
2023/08/24 08:19:49;;;;;;;16.70;9.32;;;;;;;-146.27;79.64;80550.56;5020552;28;20033;-72
2023/08/24 08:22:14;;;;;;;12.55;8.05;;;;;;;-146.27;79.78;80494.34;5027710;28;20033;-72
2023/08/24 08:24:39;;;;;;;13.75;8.10;;;;;;;-146.27;79.61;80462.22;5019987;28;20397;-72
2023/08/24 08:27:05;;;;;;;16.25;9.95;;;;;;;-146.27;78.78;80424.06;5020949;28;20025;-72
2023/08/24 08:29:30;;;;;;;12.68;8.00;;;;;;;-146.27;78.75;80422.06;5028205;28;20556;-72
2023/08/24 08:31:56;;;;;;;14.70;9.85;;;;;;;-146.27;78.63;80420.06;5028905;28;20037;-73
2023/08/24 08:34:21;;;;;;;14.57;10.23;;;;;;;-146.27;78.58;80379.91;5028259;28;20041;-72
2023/08/24 08:36:46;;;;;;;13.05;8.63;;;;;;;-146.27;78.72;80375.88;5029931;28;20021;-73
2023/08/24 08:39:13;;;;;;;11.52;8.63;;;;;;;-146.27;79.01;80347.78;5019095;28;20094;-73
2023/08/24 08:41:42;;;;;;;17.63;9.60;;;;;;;-146.27;78.78;80357.81;5028217;28;20029;-73
2023/08/24 08:44:11;;;;;;;11.68;9.40;;;;;;;-146.27;78.56;80339.75;5028680;28;20388;-72
2023/08/24 08:46:38;;;;;;;14.75;10.80;;;;;;;-146.27;78.71;80377.91;5022413;28;20073;-72
2023/08/24 08:49:06;;;;;;;14.68;10.48;;;;;;;-146.27;78.49;80325.69;5023613;28;20052;-73
2023/08/24 08:51:32;;;;;;;18.70;10.30;;;;;;;-146.27;78.29;80355.81;5023759;28;20183;-72
2023/08/24 08:53:58;;;;;;;16.60;8.98;;;;;;;-146.27;78.63;80315.66;5027882;28;20033;-72
2023/08/24 08:56:23;;;;;;;16.90;9.98;;;;;;;-146.27;78.92;80283.53;5027294;28;20159;-73
2023/08/24 08:58:50;;;;;;;15.88;8.70;;;;;;;-146.27;78.74;80279.50;5024628;28;20112;-71
2023/08/24 09:01:17;;;;;;;16.60;10.02;;;;;;;-146.27;78.71;80251.41;5027107;28;20028;-73
2023/08/24 09:03:43;;;;;;;16.25;10.55;;;;;;;-146.27;78.19;80229.31;5027840;28;20025;-73
2023/08/24 09:06:09;;;;;;;17.55;10.60;;;;;;;-146.27;77.44;80245.38;5027354;28;20492;-73
2023/08/24 09:08:34;;;;;;;18.65;9.88;;;;;;;-146.27;77.95;80171.09;5028500;28;20116;-73
2023/08/24 09:11:00;;;;;;;17.75;10.07;;;;;;;-146.27;78.07;80187.16;5028536;28;20150;-73
2023/08/24 09:13:26;;;;;;;16.25;9.60;;;;;;;-146.27;77.70;80181.13;5029198;28;20412;-73
2023/08/24 09:15:55;;;;;;;16.35;10.02;;;;;;;-146.27;77.90;80191.16;5029410;28;20744;-73
2023/08/24 09:18:21;;;;;;;14.57;10.07;;;;;;;-146.27;78.35;80167.09;5028479;28;20029;-72
2023/08/24 09:20:47;;;;;;;12.90;9.00;;;;;;;-146.27;77.57;80171.09;5027890;28;20025;-73
2023/08/24 09:23:22;;;;;;;19.20;10.60;;;;;;;-146.27;77.45;80183.13;5019906;28;20060;-73
2023/08/24 09:25:48;;;;;;;16.23;11.45;;;;;;;-146.27;77.64;80173.09;5026946;28;20098;-73
2023/08/24 09:28:13;;;;;;;17.70;11.23;;;;;;;-146.27;77.79;80173.09;5023526;28;20490;-71
2023/08/24 09:30:39;;;;;;;13.25;8.85;;;;;;;-146.27;78.44;80189.16;5027994;28;20107;-70
2023/08/24 09:33:09;;;;;;;19.55;10.88;;;;;;;-146.27;78.64;80199.22;5028056;28;20477;-71
2023/08/24 09:35:38;;;;;;;18.55;11.40;;;;;;;-146.27;79.66;80235.34;5024204;28;20096;-71
2023/08/24 09:38:20;;;;;;;15.93;10.77;;;;;;;-146.27;80.06;80243.38;5015556;28;20424;-71
2023/08/24 09:40:47;;;;;;;15.52;11.73;;;;;;;-146.27;80.14;80251.41;5024990;28;20029;-70
2023/08/24 09:43:13;;;;;;;21.75;12.38;;;;;;;-146.27;79.97;80309.63;5026327;28;20036;-71
2023/08/24 09:45:47;;;;;;;16.55;10.23;;;;;;;-146.27;80.37;80247.38;5025939;28;20033;-71
2023/08/24 09:48:12;;;;;;;15.30;10.88;;;;;;;-146.27;79.77;80279.50;5029258;28;20156;-70
2023/08/24 09:50:39;;;;;;;18.77;10.90;;;;;;;-146.27;80.10;80305.63;5028581;28;20021;-72
2023/08/24 09:53:05;;;;;;;16.63;9.25;;;;;;;-146.27;80.29;80323.69;5028758;28;20044;-71
2023/08/24 09:55:36;;;;;;;21.55;11.35;;;;;;;-146.27;81.02;80325.69;5028823;28;20033;-71
2023/08/24 09:58:03;;;;;;;15.85;11.52;;;;;;;-146.27;81.60;80375.88;5023998;28;20033;-71
2023/08/24 10:00:30;;;;;;;20.02;11.00;;;;;;;-146.27;81.71;80355.81;5026918;28;20032;-71
2023/08/24 10:02:56;;;;;;;13.25;8.80;;;;;;;-146.27;82.11;80349.78;5024822;28;20055;-72
2023/08/24 10:05:27;;;;;;;15.63;10.73;;;;;;;-146.27;81.62;80387.94;5019160;28;20069;-70
2023/08/24 10:07:55;;;;;;;21.63;11.70;;;;;;;-146.27;81.18;80359.81;5024372;28;20596;-67
2023/08/24 10:10:24;;;;;;;13.18;9.82;;;;;;;-146.27;80.89;80359.81;5020359;28;20034;-67
2023/08/24 10:12:58;;;;;;;16.33;10.57;;;;;;;-146.27;80.73;80351.78;5021363;28;20432;-67
2023/08/24 10:15:24;;;;;;;15.23;11.32;;;;;;;-146.27;81.07;80361.84;5025132;28;20100;-67
2023/08/24 10:17:50;;;;;;;22.23;11.55;;;;;;;-146.27;80.76;80369.88;5023694;28;20137;-67
2023/08/24 10:20:21;;;;;;;18.80;10.68;;;;;;;-146.27;80.89;80347.78;5023647;28;20029;-67
2023/08/24 10:22:47;;;;;;;17.08;11.23;;;;;;;-146.27;81.08;80345.78;5031441;28;20033;-67
2023/08/24 10:25:13;;;;;;;24.52;13.88;;;;;;;-146.27;81.12;80337.75;5033102;28;20488;-67
2023/08/24 10:27:43;;;;;;;19.48;12.80;;;;;;;-146.27;81.33;80339.75;5026203;28;20076;-67
2023/08/24 10:30:12;;;;;;;16.27;10.32;;;;;;;-146.27;81.25;80287.53;5031968;28;20025;-66
2023/08/24 10:32:40;;;;;;;21.17;12.63;;;;;;;-146.27;81.16;80255.41;5029416;28;20116;-70
2023/08/24 10:35:07;;;;;;;17.27;11.55;;;;;;;-146.27;80.97;80231.31;5030771;28;20638;-68
2023/08/24 10:37:34;;;;;;;21.27;11.38;;;;;;;-146.27;81.09;80183.13;5030115;28;20367;-70
2023/08/24 10:39:59;;;;;;;14.63;10.70;;;;;;;-146.27;80.93;80082.75;5029867;28;20022;-70
2023/08/24 10:42:26;;;;;;;21.35;14.13;;;;;;;-146.27;81.05;80106.84;5030100;28;20099;-70
2023/08/24 10:44:52;;;;;;;20.33;13.68;;;;;;;-146.27;81.19;80086.78;5028932;28;20500;-70
2023/08/24 10:47:17;;;;;;;19.40;12.40;;;;;;;-146.27;81.73;80070.72;5029753;28;20022;-70
2023/08/24 10:49:44;;;;;;;21.00;12.13;;;;;;;-146.27;81.07;80036.59;5030400;28;20045;-70
2023/08/24 10:52:23;;;;;;;19.52;9.93;;;;;;;-146.27;81.14;79986.41;5031760;28;20048;-69
2023/08/24 10:54:53;;;;;;;21.48;13.00;;;;;;;-146.27;79.77;80086.78;5025435;28;20389;-70
2023/08/24 10:57:29;;;;;;;17.60;11.88;;;;;;;-146.27;79.39;80044.63;5031457;28;20029;-69
2023/08/24 11:00:05;;;;;;;21.73;11.50;;;;;;;-146.27;79.77;80062.69;5025492;28;20040;-70
2023/08/24 11:02:41;;;;;;;19.00;10.77;;;;;;;-146.27;80.04;80050.63;5027307;28;20103;-69
2023/08/24 11:05:16;;;;;;;16.67;10.38;;;;;;;-146.27;80.91;80076.72;5025091;28;20111;-69